Skip Navigation LinksHome page > Weather > Current weather Skip Navigation Links

Current Weather

Honolulu Intl, Honolulu

For information only: do not use for flight planning or navigation.
Latest weather
Observation time Monday, September 26, 2016 8:53 PM HST
Local time Monday, September 26, 2016 9:06 PM HST
Flight conditions Visual Meteorological Conditions
Winds
Wind direction variable
Wind speed 5 mph
Visibility 10 mi.
Sky condition
Ceiling unlimited
Cloud layer few clouds 2,500 ft.
Cloud layer few clouds 3,700 ft.
Temperature 77°F
Dewpoint 66°F
Altimeter 30.01 in.Hg
Derived measurements
Relative humidity 69%
Heat index 77°F
Density altitude 1367 ft.
Sea-level pressure 30.00 in.Hg
Remarks
Automated weather observing station with precipitation discriminator.
METAR PHNL 270653Z VRB04KT 10SM FEW025 FEW037 25/19 A3001 RMK AO2 SLP160 T02500189

Settings

Location code

InnerDrive.Weather 4.0.5722.1 Release CLR 4.0.30319.34209
Copyright ©2015 Inner Drive Technology. All rights reserved. Portions Copyright ©1986-2015 David Braverman.

Find weather

Site navigation


Skip Navigation Links

Place info

Page info

PayPal - The safer, easier way to pay online!

Return home.

Copyright ©2016 Inner Drive Technology. Purveyors of fine, hand-crafted computer software. Page printed 2016-09-27T07:06:12 UTC.